sensor_id;sensor_type;location;lat;lon;timestamp;P1;durP1;ratioP1;P2;durP2;ratioP2
69629;SDS011;56857;52.212;5.496;2023-02-08T00:03:35;32.72;;;18.45;;
69629;SDS011;56857;52.212;5.496;2023-02-08T00:08:35;36.22;;;19.25;;
69629;SDS011;56857;52.212;5.496;2023-02-08T00:11:02;31.80;;;16.00;;
69629;SDS011;56857;52.212;5.496;2023-02-08T00:13:28;30.02;;;16.20;;
69629;SDS011;56857;52.212;5.496;2023-02-08T00:18:19;33.08;;;15.32;;
69629;SDS011;56857;52.212;5.496;2023-02-08T00:20:45;31.48;;;18.50;;
69629;SDS011;56857;52.212;5.496;2023-02-08T00:25:38;31.50;;;16.52;;
69629;SDS011;56857;52.212;5.496;2023-02-08T00:28:04;30.40;;;20.48;;
69629;SDS011;56857;52.212;5.496;2023-02-08T00:30:30;28.52;;;15.38;;
69629;SDS011;56857;52.212;5.496;2023-02-08T00:32:56;29.67;;;15.93;;
69629;SDS011;56857;52.212;5.496;2023-02-08T00:37:47;25.60;;;14.07;;
69629;SDS011;56857;52.212;5.496;2023-02-08T00:42:37;28.37;;;16.93;;
69629;SDS011;56857;52.212;5.496;2023-02-08T00:47:28;27.15;;;17.20;;
69629;SDS011;56857;52.212;5.496;2023-02-08T00:49:54;27.27;;;15.33;;
69629;SDS011;56857;52.212;5.496;2023-02-08T00:52:19;27.23;;;15.60;;
69629;SDS011;56857;52.212;5.496;2023-02-08T00:57:10;31.98;;;16.48;;
69629;SDS011;56857;52.212;5.496;2023-02-08T00:59:35;32.78;;;18.90;;
69629;SDS011;56857;52.212;5.496;2023-02-08T01:02:01;29.02;;;16.83;;
69629;SDS011;56857;52.212;5.496;2023-02-08T01:06:52;29.60;;;14.98;;
69629;SDS011;56857;52.212;5.496;2023-02-08T01:11:43;29.63;;;19.17;;
69629;SDS011;56857;52.212;5.496;2023-02-08T01:14:10;34.63;;;16.30;;
69629;SDS011;56857;52.212;5.496;2023-02-08T01:16:36;34.22;;;16.88;;
69629;SDS011;56857;52.212;5.496;2023-02-08T01:19:02;29.38;;;19.35;;
69629;SDS011;56857;52.212;5.496;2023-02-08T01:21:29;26.25;;;15.80;;
69629;SDS011;56857;52.212;5.496;2023-02-08T01:23:59;28.80;;;18.55;;
69629;SDS011;56857;52.212;5.496;2023-02-08T01:26:25;30.83;;;16.23;;
69629;SDS011;56857;52.212;5.496;2023-02-08T01:31:18;25.95;;;14.93;;
69629;SDS011;56857;52.212;5.496;2023-02-08T01:33:55;27.95;;;16.02;;
69629;SDS011;56857;52.212;5.496;2023-02-08T01:36:22;28.92;;;16.02;;
69629;SDS011;56857;52.212;5.496;2023-02-08T01:41:17;23.75;;;13.50;;
69629;SDS011;56857;52.212;5.496;2023-02-08T01:44:01;24.27;;;13.48;;
69629;SDS011;56857;52.212;5.496;2023-02-08T01:46:29;25.83;;;14.23;;
69629;SDS011;56857;52.212;5.496;2023-02-08T01:48:57;25.92;;;15.75;;
69629;SDS011;56857;52.212;5.496;2023-02-08T01:51:28;24.35;;;14.63;;
69629;SDS011;56857;52.212;5.496;2023-02-08T01:53:58;23.83;;;13.35;;
69629;SDS011;56857;52.212;5.496;2023-02-08T01:56:31;23.38;;;13.82;;
69629;SDS011;56857;52.212;5.496;2023-02-08T01:59:01;22.30;;;13.00;;
69629;SDS011;56857;52.212;5.496;2023-02-08T02:01:31;22.85;;;12.63;;
69629;SDS011;56857;52.212;5.496;2023-02-08T02:04:01;24.25;;;12.38;;
69629;SDS011;56857;52.212;5.496;2023-02-08T02:06:30;21.75;;;12.07;;
69629;SDS011;56857;52.212;5.496;2023-02-08T02:11:36;21.77;;;13.38;;
69629;SDS011;56857;52.212;5.496;2023-02-08T02:16:28;23.88;;;12.77;;
69629;SDS011;56857;52.212;5.496;2023-02-08T02:18:54;21.30;;;11.75;;
69629;SDS011;56857;52.212;5.496;2023-02-08T02:37:45;17.08;;;10.88;;
69629;SDS011;56857;52.212;5.496;2023-02-08T02:43:16;19.40;;;11.95;;
69629;SDS011;56857;52.212;5.496;2023-02-08T02:48:41;20.80;;;12.07;;
69629;SDS011;56857;52.212;5.496;2023-02-08T02:51:24;16.17;;;9.52;;
69629;SDS011;56857;52.212;5.496;2023-02-08T02:54:13;19.60;;;13.20;;
69629;SDS011;56857;52.212;5.496;2023-02-08T02:56:43;19.08;;;10.48;;
69629;SDS011;56857;52.212;5.496;2023-02-08T02:59:12;18.30;;;11.95;;
69629;SDS011;56857;52.212;5.496;2023-02-08T03:01:40;21.27;;;11.50;;
69629;SDS011;56857;52.212;5.496;2023-02-08T03:04:15;20.05;;;12.20;;
69629;SDS011;56857;52.212;5.496;2023-02-08T03:07:04;18.17;;;11.68;;
69629;SDS011;56857;52.212;5.496;2023-02-08T03:12:38;20.40;;;11.63;;
69629;SDS011;56857;52.212;5.496;2023-02-08T03:20:33;18.17;;;10.57;;
69629;SDS011;56857;52.212;5.496;2023-02-08T03:31:03;19.50;;;12.05;;
69629;SDS011;56857;52.212;5.496;2023-02-08T03:36:03;22.20;;;12.05;;
69629;SDS011;56857;52.212;5.496;2023-02-08T03:38:36;23.48;;;11.95;;
69629;SDS011;56857;52.212;5.496;2023-02-08T03:41:05;21.48;;;12.38;;
69629;SDS011;56857;52.212;5.496;2023-02-08T03:43:38;20.35;;;12.38;;
69629;SDS011;56857;52.212;5.496;2023-02-08T03:46:40;19.05;;;11.90;;
69629;SDS011;56857;52.212;5.496;2023-02-08T03:49:23;19.90;;;12.10;;
69629;SDS011;56857;52.212;5.496;2023-02-08T03:51:51;22.23;;;12.52;;
69629;SDS011;56857;52.212;5.496;2023-02-08T03:54:19;20.40;;;12.68;;
69629;SDS011;56857;52.212;5.496;2023-02-08T03:56:50;21.60;;;12.70;;
69629;SDS011;56857;52.212;5.496;2023-02-08T04:01:48;19.27;;;11.18;;
69629;SDS011;56857;52.212;5.496;2023-02-08T04:04:20;19.65;;;10.35;;
69629;SDS011;56857;52.212;5.496;2023-02-08T04:06:46;16.95;;;12.85;;
69629;SDS011;56857;52.212;5.496;2023-02-08T04:11:37;21.30;;;11.40;;
69629;SDS011;56857;52.212;5.496;2023-02-08T04:14:02;21.10;;;11.48;;
69629;SDS011;56857;52.212;5.496;2023-02-08T04:16:27;20.37;;;10.97;;
69629;SDS011;56857;52.212;5.496;2023-02-08T04:18:53;19.48;;;10.23;;
69629;SDS011;56857;52.212;5.496;2023-02-08T04:21:18;19.37;;;12.60;;
69629;SDS011;56857;52.212;5.496;2023-02-08T04:23:43;27.52;;;12.68;;
69629;SDS011;56857;52.212;5.496;2023-02-08T04:26:09;21.00;;;12.27;;
69629;SDS011;56857;52.212;5.496;2023-02-08T04:28:34;21.98;;;12.98;;
69629;SDS011;56857;52.212;5.496;2023-02-08T04:30:59;22.05;;;13.10;;
69629;SDS011;56857;52.212;5.496;2023-02-08T04:33:25;20.85;;;12.82;;
69629;SDS011;56857;52.212;5.496;2023-02-08T04:35:50;19.60;;;12.38;;
69629;SDS011;56857;52.212;5.496;2023-02-08T04:38:16;19.13;;;11.70;;
69629;SDS011;56857;52.212;5.496;2023-02-08T04:40:41;21.50;;;12.40;;
69629;SDS011;56857;52.212;5.496;2023-02-08T04:43:06;22.33;;;11.70;;
69629;SDS011;56857;52.212;5.496;2023-02-08T04:45:33;19.55;;;11.77;;
69629;SDS011;56857;52.212;5.496;2023-02-08T04:48:01;19.25;;;12.23;;
69629;SDS011;56857;52.212;5.496;2023-02-08T04:50:27;19.63;;;12.18;;
69629;SDS011;56857;52.212;5.496;2023-02-08T04:52:52;19.25;;;10.45;;
69629;SDS011;56857;52.212;5.496;2023-02-08T04:55:19;18.95;;;12.20;;
69629;SDS011;56857;52.212;5.496;2023-02-08T04:57:44;21.92;;;11.70;;
69629;SDS011;56857;52.212;5.496;2023-02-08T05:00:10;19.23;;;10.57;;
69629;SDS011;56857;52.212;5.496;2023-02-08T05:02:36;19.88;;;11.23;;
69629;SDS011;56857;52.212;5.496;2023-02-08T05:05:01;21.85;;;12.93;;
69629;SDS011;56857;52.212;5.496;2023-02-08T05:07:27;19.95;;;11.00;;
69629;SDS011;56857;52.212;5.496;2023-02-08T05:09:52;19.10;;;12.32;;
69629;SDS011;56857;52.212;5.496;2023-02-08T05:12:18;17.77;;;10.15;;
69629;SDS011;56857;52.212;5.496;2023-02-08T05:14:43;21.75;;;11.70;;
69629;SDS011;56857;52.212;5.496;2023-02-08T05:17:10;19.17;;;11.80;;
69629;SDS011;56857;52.212;5.496;2023-02-08T05:19:35;19.40;;;10.82;;
69629;SDS011;56857;52.212;5.496;2023-02-08T05:22:00;19.13;;;11.43;;
69629;SDS011;56857;52.212;5.496;2023-02-08T05:24:26;21.38;;;12.07;;
69629;SDS011;56857;52.212;5.496;2023-02-08T05:26:53;21.25;;;11.05;;
69629;SDS011;56857;52.212;5.496;2023-02-08T05:29:19;19.52;;;11.52;;
69629;SDS011;56857;52.212;5.496;2023-02-08T05:31:45;20.50;;;11.45;;
69629;SDS011;56857;52.212;5.496;2023-02-08T05:34:10;18.52;;;10.68;;
69629;SDS011;56857;52.212;5.496;2023-02-08T05:36:36;21.70;;;11.63;;
69629;SDS011;56857;52.212;5.496;2023-02-08T05:39:01;19.10;;;11.77;;
69629;SDS011;56857;52.212;5.496;2023-02-08T05:41:26;19.13;;;11.48;;
69629;SDS011;56857;52.212;5.496;2023-02-08T05:43:52;18.73;;;11.47;;
69629;SDS011;56857;52.212;5.496;2023-02-08T05:46:17;18.30;;;10.70;;
69629;SDS011;56857;52.212;5.496;2023-02-08T05:48:44;19.35;;;11.27;;
69629;SDS011;56857;52.212;5.496;2023-02-08T05:51:09;22.30;;;11.45;;
69629;SDS011;56857;52.212;5.496;2023-02-08T05:53:35;22.05;;;13.48;;
69629;SDS011;56857;52.212;5.496;2023-02-08T05:56:00;20.42;;;12.82;;
69629;SDS011;56857;52.212;5.496;2023-02-08T05:58:27;17.98;;;10.00;;
69629;SDS011;56857;52.212;5.496;2023-02-08T06:00:52;17.98;;;11.93;;
69629;SDS011;56857;52.212;5.496;2023-02-08T06:03:17;23.92;;;11.23;;
69629;SDS011;56857;52.212;5.496;2023-02-08T06:05:43;19.92;;;10.52;;
69629;SDS011;56857;52.212;5.496;2023-02-08T06:08:09;20.45;;;11.18;;
69629;SDS011;56857;52.212;5.496;2023-02-08T06:10:34;18.90;;;12.82;;
69629;SDS011;56857;52.212;5.496;2023-02-08T06:13:02;22.25;;;12.88;;
69629;SDS011;56857;52.212;5.496;2023-02-08T06:15:28;22.10;;;13.90;;
69629;SDS011;56857;52.212;5.496;2023-02-08T06:17:53;22.20;;;11.23;;
69629;SDS011;56857;52.212;5.496;2023-02-08T06:20:19;22.40;;;13.95;;
69629;SDS011;56857;52.212;5.496;2023-02-08T06:22:44;22.80;;;11.55;;
69629;SDS011;56857;52.212;5.496;2023-02-08T06:25:10;19.75;;;12.60;;
69629;SDS011;56857;52.212;5.496;2023-02-08T06:27:35;19.77;;;11.40;;
69629;SDS011;56857;52.212;5.496;2023-02-08T06:30:01;21.88;;;11.07;;
69629;SDS011;56857;52.212;5.496;2023-02-08T06:32:26;22.52;;;14.23;;
69629;SDS011;56857;52.212;5.496;2023-02-08T06:34:51;19.73;;;10.75;;
69629;SDS011;56857;52.212;5.496;2023-02-08T06:37:17;21.67;;;12.50;;
69629;SDS011;56857;52.212;5.496;2023-02-08T06:39:42;20.90;;;10.93;;
69629;SDS011;56857;52.212;5.496;2023-02-08T06:42:08;21.23;;;12.20;;
69629;SDS011;56857;52.212;5.496;2023-02-08T06:44:33;20.73;;;14.48;;
69629;SDS011;56857;52.212;5.496;2023-02-08T06:46:59;20.05;;;12.07;;
69629;SDS011;56857;52.212;5.496;2023-02-08T06:49:24;32.25;;;11.00;;
69629;SDS011;56857;52.212;5.496;2023-02-08T06:51:49;22.98;;;12.65;;
69629;SDS011;56857;52.212;5.496;2023-02-08T06:54:16;22.90;;;13.30;;
69629;SDS011;56857;52.212;5.496;2023-02-08T06:56:41;25.70;;;12.95;;
69629;SDS011;56857;52.212;5.496;2023-02-08T06:59:08;23.90;;;13.68;;
69629;SDS011;56857;52.212;5.496;2023-02-08T07:03:59;21.17;;;13.27;;
69629;SDS011;56857;52.212;5.496;2023-02-08T07:06:24;21.65;;;12.52;;
69629;SDS011;56857;52.212;5.496;2023-02-08T07:08:49;23.60;;;13.90;;
69629;SDS011;56857;52.212;5.496;2023-02-08T07:11:16;24.10;;;13.23;;
69629;SDS011;56857;52.212;5.496;2023-02-08T07:13:45;20.90;;;10.70;;
69629;SDS011;56857;52.212;5.496;2023-02-08T07:16:14;20.13;;;11.73;;
69629;SDS011;56857;52.212;5.496;2023-02-08T07:18:42;28.65;;;13.25;;
69629;SDS011;56857;52.212;5.496;2023-02-08T07:21:07;20.00;;;11.35;;
69629;SDS011;56857;52.212;5.496;2023-02-08T07:23:33;20.60;;;12.25;;
69629;SDS011;56857;52.212;5.496;2023-02-08T07:25:59;22.50;;;12.85;;
69629;SDS011;56857;52.212;5.496;2023-02-08T07:28:26;22.83;;;12.73;;
69629;SDS011;56857;52.212;5.496;2023-02-08T07:30:51;22.42;;;11.95;;
69629;SDS011;56857;52.212;5.496;2023-02-08T07:35:45;21.00;;;12.48;;
69629;SDS011;56857;52.212;5.496;2023-02-08T07:38:10;22.33;;;12.35;;
69629;SDS011;56857;52.212;5.496;2023-02-08T07:40:36;21.08;;;12.93;;
69629;SDS011;56857;52.212;5.496;2023-02-08T07:43:01;22.77;;;11.83;;
69629;SDS011;56857;52.212;5.496;2023-02-08T07:45:26;21.33;;;11.63;;
69629;SDS011;56857;52.212;5.496;2023-02-08T07:47:51;22.67;;;12.05;;
69629;SDS011;56857;52.212;5.496;2023-02-08T07:50:17;21.98;;;12.55;;
69629;SDS011;56857;52.212;5.496;2023-02-08T07:52:43;21.15;;;10.75;;
69629;SDS011;56857;52.212;5.496;2023-02-08T07:55:08;24.23;;;13.02;;
69629;SDS011;56857;52.212;5.496;2023-02-08T07:57:35;20.48;;;10.75;;
69629;SDS011;56857;52.212;5.496;2023-02-08T08:00:00;28.15;;;15.35;;
69629;SDS011;56857;52.212;5.496;2023-02-08T08:02:25;23.92;;;12.15;;
69629;SDS011;56857;52.212;5.496;2023-02-08T08:04:51;23.30;;;13.50;;
69629;SDS011;56857;52.212;5.496;2023-02-08T08:07:16;22.37;;;11.73;;
69629;SDS011;56857;52.212;5.496;2023-02-08T08:09:41;23.23;;;12.07;;
69629;SDS011;56857;52.212;5.496;2023-02-08T08:12:07;21.67;;;11.75;;
69629;SDS011;56857;52.212;5.496;2023-02-08T08:14:46;21.27;;;11.02;;
69629;SDS011;56857;52.212;5.496;2023-02-08T08:17:11;19.55;;;10.48;;
69629;SDS011;56857;52.212;5.496;2023-02-08T08:19:37;22.60;;;11.45;;
69629;SDS011;56857;52.212;5.496;2023-02-08T08:22:02;21.95;;;12.40;;
69629;SDS011;56857;52.212;5.496;2023-02-08T08:24:28;21.73;;;11.13;;
69629;SDS011;56857;52.212;5.496;2023-02-08T08:26:53;19.27;;;10.25;;
69629;SDS011;56857;52.212;5.496;2023-02-08T08:29:19;19.05;;;10.68;;
69629;SDS011;56857;52.212;5.496;2023-02-08T08:31:44;22.92;;;12.27;;
69629;SDS011;56857;52.212;5.496;2023-02-08T08:34:09;23.17;;;11.70;;
69629;SDS011;56857;52.212;5.496;2023-02-08T08:36:34;29.05;;;13.13;;
69629;SDS011;56857;52.212;5.496;2023-02-08T08:39:00;28.10;;;13.63;;
69629;SDS011;56857;52.212;5.496;2023-02-08T08:41:25;26.00;;;14.00;;
69629;SDS011;56857;52.212;5.496;2023-02-08T08:43:51;27.20;;;14.07;;
69629;SDS011;56857;52.212;5.496;2023-02-08T08:46:17;31.33;;;15.18;;
69629;SDS011;56857;52.212;5.496;2023-02-08T08:48:43;24.65;;;13.77;;
69629;SDS011;56857;52.212;5.496;2023-02-08T08:53:34;26.17;;;12.00;;
69629;SDS011;56857;52.212;5.496;2023-02-08T08:56:00;22.50;;;12.57;;
69629;SDS011;56857;52.212;5.496;2023-02-08T08:58:25;25.85;;;11.95;;
69629;SDS011;56857;52.212;5.496;2023-02-08T09:00:51;21.63;;;12.90;;
69629;SDS011;56857;52.212;5.496;2023-02-08T09:05:41;24.58;;;11.90;;
69629;SDS011;56857;52.212;5.496;2023-02-08T09:08:07;22.80;;;12.95;;
69629;SDS011;56857;52.212;5.496;2023-02-08T09:10:32;25.90;;;12.13;;
69629;SDS011;56857;52.212;5.496;2023-02-08T09:12:57;21.92;;;13.10;;
69629;SDS011;56857;52.212;5.496;2023-02-08T09:15:23;27.00;;;14.68;;
69629;SDS011;56857;52.212;5.496;2023-02-08T09:17:48;25.55;;;12.75;;
69629;SDS011;56857;52.212;5.496;2023-02-08T09:20:14;24.42;;;13.70;;
69629;SDS011;56857;52.212;5.496;2023-02-08T09:25:05;23.75;;;12.85;;
69629;SDS011;56857;52.212;5.496;2023-02-08T09:29:56;24.38;;;14.02;;
69629;SDS011;56857;52.212;5.496;2023-02-08T09:32:21;27.52;;;13.07;;
69629;SDS011;56857;52.212;5.496;2023-02-08T09:37:12;23.80;;;12.27;;
69629;SDS011;56857;52.212;5.496;2023-02-08T09:39:37;20.52;;;12.52;;
69629;SDS011;56857;52.212;5.496;2023-02-08T09:44:58;22.10;;;12.50;;
69629;SDS011;56857;52.212;5.496;2023-02-08T09:47:32;25.67;;;11.60;;
69629;SDS011;56857;52.212;5.496;2023-02-08T09:52:41;23.88;;;11.90;;
69629;SDS011;56857;52.212;5.496;2023-02-08T09:58:03;21.60;;;11.27;;
69629;SDS011;56857;52.212;5.496;2023-02-08T10:00:40;23.70;;;11.88;;
69629;SDS011;56857;52.212;5.496;2023-02-08T10:03:18;17.95;;;11.52;;
69629;SDS011;56857;52.212;5.496;2023-02-08T10:05:51;20.05;;;11.80;;
69629;SDS011;56857;52.212;5.496;2023-02-08T10:16:00;19.20;;;11.10;;
69629;SDS011;56857;52.212;5.496;2023-02-08T10:18:49;21.45;;;12.15;;
69629;SDS011;56857;52.212;5.496;2023-02-08T10:27:06;20.13;;;11.13;;
69629;SDS011;56857;52.212;5.496;2023-02-08T10:35:13;17.35;;;11.43;;
69629;SDS011;56857;52.212;5.496;2023-02-08T10:37:46;19.42;;;10.57;;
69629;SDS011;56857;52.212;5.496;2023-02-08T10:43:30;20.67;;;10.60;;
69629;SDS011;56857;52.212;5.496;2023-02-08T10:48:10;17.67;;;10.55;;
69629;SDS011;56857;52.212;5.496;2023-02-08T10:50:45;17.45;;;9.85;;
69629;SDS011;56857;52.212;5.496;2023-02-08T10:53:14;25.15;;;9.60;;
69629;SDS011;56857;52.212;5.496;2023-02-08T10:55:48;15.88;;;9.48;;
69629;SDS011;56857;52.212;5.496;2023-02-08T10:58:17;17.95;;;10.02;;
69629;SDS011;56857;52.212;5.496;2023-02-08T11:00:46;16.13;;;9.25;;
69629;SDS011;56857;52.212;5.496;2023-02-08T11:05:49;16.58;;;9.35;;
69629;SDS011;56857;52.212;5.496;2023-02-08T11:08:16;16.77;;;10.18;;
69629;SDS011;56857;52.212;5.496;2023-02-08T11:11:05;15.65;;;9.35;;
69629;SDS011;56857;52.212;5.496;2023-02-08T11:13:36;17.13;;;8.70;;
69629;SDS011;56857;52.212;5.496;2023-02-08T11:16:08;15.32;;;8.82;;
69629;SDS011;56857;52.212;5.496;2023-02-08T11:18:48;16.98;;;9.05;;
69629;SDS011;56857;52.212;5.496;2023-02-08T11:21:21;16.58;;;9.27;;
69629;SDS011;56857;52.212;5.496;2023-02-08T11:23:53;15.98;;;8.93;;
69629;SDS011;56857;52.212;5.496;2023-02-08T11:31:25;16.13;;;9.52;;
69629;SDS011;56857;52.212;5.496;2023-02-08T11:36:24;17.35;;;8.93;;
69629;SDS011;56857;52.212;5.496;2023-02-08T11:38:50;16.23;;;8.88;;
69629;SDS011;56857;52.212;5.496;2023-02-08T11:41:16;14.07;;;8.55;;
69629;SDS011;56857;52.212;5.496;2023-02-08T11:44:04;19.05;;;11.13;;
69629;SDS011;56857;52.212;5.496;2023-02-08T11:46:31;16.23;;;9.48;;
69629;SDS011;56857;52.212;5.496;2023-02-08T11:48:58;15.02;;;8.60;;
69629;SDS011;56857;52.212;5.496;2023-02-08T11:51:28;17.33;;;8.85;;
69629;SDS011;56857;52.212;5.496;2023-02-08T11:53:58;16.92;;;9.07;;
69629;SDS011;56857;52.212;5.496;2023-02-08T11:56:25;15.13;;;8.40;;
69629;SDS011;56857;52.212;5.496;2023-02-08T12:01:32;13.63;;;8.00;;
69629;SDS011;56857;52.212;5.496;2023-02-08T12:04:01;14.10;;;7.45;;
69629;SDS011;56857;52.212;5.496;2023-02-08T12:23:04;14.20;;;6.88;;
69629;SDS011;56857;52.212;5.496;2023-02-08T12:26:13;12.77;;;7.00;;
69629;SDS011;56857;52.212;5.496;2023-02-08T12:28:49;11.48;;;6.68;;
69629;SDS011;56857;52.212;5.496;2023-02-08T12:42:38;12.48;;;7.13;;
69629;SDS011;56857;52.212;5.496;2023-02-08T12:51:21;11.52;;;6.45;;
69629;SDS011;56857;52.212;5.496;2023-02-08T12:54:08;12.20;;;6.75;;
69629;SDS011;56857;52.212;5.496;2023-02-08T12:56:37;12.95;;;6.20;;
69629;SDS011;56857;52.212;5.496;2023-02-08T12:59:10;13.40;;;6.70;;
69629;SDS011;56857;52.212;5.496;2023-02-08T13:01:54;12.75;;;6.68;;
69629;SDS011;56857;52.212;5.496;2023-02-08T13:04:26;13.35;;;6.78;;
69629;SDS011;56857;52.212;5.496;2023-02-08T13:06:58;13.68;;;6.32;;
69629;SDS011;56857;52.212;5.496;2023-02-08T13:09:38;12.55;;;6.25;;
69629;SDS011;56857;52.212;5.496;2023-02-08T13:12:14;9.98;;;6.32;;
69629;SDS011;56857;52.212;5.496;2023-02-08T13:15:11;10.45;;;5.85;;
69629;SDS011;56857;52.212;5.496;2023-02-08T13:21:12;10.50;;;5.35;;
69629;SDS011;56857;52.212;5.496;2023-02-08T13:23:47;11.43;;;5.55;;
69629;SDS011;56857;52.212;5.496;2023-02-08T13:26:15;13.05;;;5.65;;
69629;SDS011;56857;52.212;5.496;2023-02-08T13:28:45;11.07;;;6.05;;
69629;SDS011;56857;52.212;5.496;2023-02-08T13:31:13;12.30;;;5.53;;
69629;SDS011;56857;52.212;5.496;2023-02-08T13:33:48;11.38;;;5.32;;
69629;SDS011;56857;52.212;5.496;2023-02-08T13:36:35;10.00;;;5.97;;
69629;SDS011;56857;52.212;5.496;2023-02-08T13:39:04;8.20;;;4.93;;
69629;SDS011;56857;52.212;5.496;2023-02-08T13:41:31;10.27;;;5.97;;
69629;SDS011;56857;52.212;5.496;2023-02-08T13:44:00;12.75;;;4.90;;
69629;SDS011;56857;52.212;5.496;2023-02-08T13:46:44;9.75;;;5.20;;
69629;SDS011;56857;52.212;5.496;2023-02-08T13:57:54;11.82;;;5.07;;
69629;SDS011;56857;52.212;5.496;2023-02-08T14:00:22;11.75;;;5.32;;
69629;SDS011;56857;52.212;5.496;2023-02-08T14:05:33;10.02;;;4.57;;
69629;SDS011;56857;52.212;5.496;2023-02-08T14:08:04;9.43;;;4.60;;
69629;SDS011;56857;52.212;5.496;2023-02-08T14:10:40;9.60;;;5.00;;
69629;SDS011;56857;52.212;5.496;2023-02-08T14:13:20;10.07;;;4.65;;
69629;SDS011;56857;52.212;5.496;2023-02-08T14:18:53;9.25;;;4.68;;
69629;SDS011;56857;52.212;5.496;2023-02-08T14:21:42;9.10;;;4.55;;
69629;SDS011;56857;52.212;5.496;2023-02-08T14:26:46;7.38;;;3.75;;
69629;SDS011;56857;52.212;5.496;2023-02-08T14:29:19;8.85;;;4.10;;
69629;SDS011;56857;52.212;5.496;2023-02-08T14:31:48;8.30;;;3.90;;
69629;SDS011;56857;52.212;5.496;2023-02-08T14:34:47;7.80;;;3.97;;
69629;SDS011;56857;52.212;5.496;2023-02-08T14:39:43;7.47;;;3.45;;
69629;SDS011;56857;52.212;5.496;2023-02-08T14:42:09;8.90;;;3.63;;
69629;SDS011;56857;52.212;5.496;2023-02-08T14:47:12;8.18;;;3.50;;
69629;SDS011;56857;52.212;5.496;2023-02-08T14:58:41;7.95;;;3.65;;
69629;SDS011;56857;52.212;5.496;2023-02-08T15:03:55;7.78;;;4.07;;
69629;SDS011;56857;52.212;5.496;2023-02-08T15:06:29;7.18;;;3.55;;
69629;SDS011;56857;52.212;5.496;2023-02-08T15:08:59;6.82;;;3.42;;
69629;SDS011;56857;52.212;5.496;2023-02-08T15:11:32;7.38;;;3.60;;
69629;SDS011;56857;52.212;5.496;2023-02-08T15:14:00;7.10;;;3.70;;
69629;SDS011;56857;52.212;5.496;2023-02-08T15:16:28;11.57;;;3.30;;
69629;SDS011;56857;52.212;5.496;2023-02-08T15:18:58;7.82;;;4.13;;
69629;SDS011;56857;52.212;5.496;2023-02-08T15:21:28;7.18;;;3.90;;
69629;SDS011;56857;52.212;5.496;2023-02-08T15:26:23;8.55;;;3.45;;
69629;SDS011;56857;52.212;5.496;2023-02-08T15:28:48;7.00;;;3.33;;
69629;SDS011;56857;52.212;5.496;2023-02-08T15:31:17;6.93;;;3.03;;
69629;SDS011;56857;52.212;5.496;2023-02-08T15:33:45;7.00;;;3.22;;
69629;SDS011;56857;52.212;5.496;2023-02-08T15:36:31;7.63;;;3.38;;
69629;SDS011;56857;52.212;5.496;2023-02-08T15:38:58;10.18;;;4.15;;
69629;SDS011;56857;52.212;5.496;2023-02-08T15:41:27;8.82;;;3.70;;
69629;SDS011;56857;52.212;5.496;2023-02-08T15:46:46;9.55;;;4.43;;
69629;SDS011;56857;52.212;5.496;2023-02-08T15:49:13;10.52;;;4.13;;
69629;SDS011;56857;52.212;5.496;2023-02-08T15:51:41;8.00;;;3.65;;
69629;SDS011;56857;52.212;5.496;2023-02-08T15:54:11;8.38;;;4.45;;
69629;SDS011;56857;52.212;5.496;2023-02-08T15:56:40;8.85;;;3.83;;
69629;SDS011;56857;52.212;5.496;2023-02-08T15:59:15;7.20;;;3.70;;
69629;SDS011;56857;52.212;5.496;2023-02-08T16:01:46;9.38;;;4.18;;
69629;SDS011;56857;52.212;5.496;2023-02-08T16:04:13;8.60;;;4.22;;
69629;SDS011;56857;52.212;5.496;2023-02-08T16:06:39;8.07;;;4.37;;
69629;SDS011;56857;52.212;5.496;2023-02-08T16:09:17;8.55;;;3.92;;
69629;SDS011;56857;52.212;5.496;2023-02-08T16:11:46;8.38;;;4.10;;
69629;SDS011;56857;52.212;5.496;2023-02-08T16:14:13;10.88;;;4.85;;
69629;SDS011;56857;52.212;5.496;2023-02-08T16:16:46;9.77;;;4.63;;
69629;SDS011;56857;52.212;5.496;2023-02-08T16:21:55;10.63;;;5.30;;
69629;SDS011;56857;52.212;5.496;2023-02-08T16:24:46;9.45;;;5.32;;
69629;SDS011;56857;52.212;5.496;2023-02-08T16:27:25;9.32;;;4.78;;
69629;SDS011;56857;52.212;5.496;2023-02-08T16:29:53;14.55;;;5.53;;
69629;SDS011;56857;52.212;5.496;2023-02-08T16:34:51;9.80;;;5.20;;
69629;SDS011;56857;52.212;5.496;2023-02-08T16:37:20;11.10;;;5.25;;
69629;SDS011;56857;52.212;5.496;2023-02-08T16:42:20;11.15;;;5.63;;
69629;SDS011;56857;52.212;5.496;2023-02-08T16:47:27;13.75;;;5.90;;
69629;SDS011;56857;52.212;5.496;2023-02-08T16:50:03;12.68;;;5.63;;
69629;SDS011;56857;52.212;5.496;2023-02-08T16:52:30;11.52;;;5.55;;
69629;SDS011;56857;52.212;5.496;2023-02-08T16:54:56;11.25;;;5.70;;
69629;SDS011;56857;52.212;5.496;2023-02-08T16:57:23;10.82;;;5.63;;
69629;SDS011;56857;52.212;5.496;2023-02-08T16:59:48;11.48;;;5.63;;
69629;SDS011;56857;52.212;5.496;2023-02-08T17:02:14;11.23;;;6.38;;
69629;SDS011;56857;52.212;5.496;2023-02-08T17:04:39;11.60;;;6.05;;
69629;SDS011;56857;52.212;5.496;2023-02-08T17:07:04;12.45;;;7.13;;
69629;SDS011;56857;52.212;5.496;2023-02-08T17:09:30;11.32;;;6.10;;
69629;SDS011;56857;52.212;5.496;2023-02-08T17:11:55;10.43;;;5.43;;
69629;SDS011;56857;52.212;5.496;2023-02-08T17:14:20;9.80;;;5.35;;
69629;SDS011;56857;52.212;5.496;2023-02-08T17:16:46;11.50;;;5.10;;
69629;SDS011;56857;52.212;5.496;2023-02-08T17:19:14;9.52;;;5.38;;
69629;SDS011;56857;52.212;5.496;2023-02-08T17:21:41;10.23;;;5.70;;
69629;SDS011;56857;52.212;5.496;2023-02-08T17:24:06;11.40;;;5.57;;
69629;SDS011;56857;52.212;5.496;2023-02-08T17:26:36;10.18;;;4.93;;
69629;SDS011;56857;52.212;5.496;2023-02-08T17:29:04;10.52;;;4.88;;
69629;SDS011;56857;52.212;5.496;2023-02-08T17:31:30;13.38;;;5.55;;
69629;SDS011;56857;52.212;5.496;2023-02-08T17:33:55;10.55;;;5.82;;
69629;SDS011;56857;52.212;5.496;2023-02-08T17:36:21;12.48;;;5.60;;
69629;SDS011;56857;52.212;5.496;2023-02-08T17:38:46;10.98;;;5.55;;
69629;SDS011;56857;52.212;5.496;2023-02-08T17:41:12;11.20;;;5.32;;
69629;SDS011;56857;52.212;5.496;2023-02-08T17:43:43;12.20;;;5.43;;
69629;SDS011;56857;52.212;5.496;2023-02-08T17:46:09;12.43;;;5.60;;
69629;SDS011;56857;52.212;5.496;2023-02-08T17:48:36;11.68;;;6.20;;
69629;SDS011;56857;52.212;5.496;2023-02-08T17:51:07;12.48;;;5.65;;
69629;SDS011;56857;52.212;5.496;2023-02-08T17:53:37;12.10;;;6.15;;
69629;SDS011;56857;52.212;5.496;2023-02-08T17:56:02;12.50;;;6.35;;
69629;SDS011;56857;52.212;5.496;2023-02-08T17:58:27;11.10;;;5.95;;
69629;SDS011;56857;52.212;5.496;2023-02-08T18:00:53;13.13;;;6.50;;
69629;SDS011;56857;52.212;5.496;2023-02-08T18:03:18;10.77;;;5.70;;
69629;SDS011;56857;52.212;5.496;2023-02-08T18:05:43;11.30;;;6.40;;
69629;SDS011;56857;52.212;5.496;2023-02-08T18:08:09;12.70;;;6.60;;
69629;SDS011;56857;52.212;5.496;2023-02-08T18:10:34;12.85;;;6.55;;
69629;SDS011;56857;52.212;5.496;2023-02-08T18:12:59;12.03;;;6.63;;
69629;SDS011;56857;52.212;5.496;2023-02-08T18:15:24;12.07;;;6.10;;
69629;SDS011;56857;52.212;5.496;2023-02-08T18:17:50;11.67;;;6.00;;
69629;SDS011;56857;52.212;5.496;2023-02-08T18:20:15;13.13;;;5.97;;
69629;SDS011;56857;52.212;5.496;2023-02-08T18:22:41;13.63;;;6.03;;
69629;SDS011;56857;52.212;5.496;2023-02-08T18:25:07;16.27;;;6.32;;
69629;SDS011;56857;52.212;5.496;2023-02-08T18:27:34;11.88;;;6.00;;